Time;durP1;ratioP1;P1;durP2;ratioP2;P2;SDS_P1;SDS_P2;PMS_P1;PMS_P2;Temp;Humidity;BMP_temperature;BMP_pressure;BME280_temperature;BME280_humidity;BME280_pressure;Samples;Min_cycle;Max_cycle;Signal;HPM_P1;HPM_P2
2022/09/02 00:01:38;;;;;;;0.57;0.30;;;;;;;9.93;60.78;99272.78;5014387;28;20033;-54
2022/09/02 00:04:07;;;;;;;2.47;0.32;;;;;;;9.95;60.47;99278.03;5015856;28;20429;-53
2022/09/02 00:06:35;;;;;;;0.30;0.30;;;;;;;9.89;60.72;99272.25;5011259;28;20067;-55
2022/09/02 00:09:02;;;;;;;1.20;0.28;;;;;;;9.93;60.62;99274.66;5011930;28;20041;-54
2022/09/02 00:11:30;;;;;;;0.40;0.20;;;;;;;9.91;60.98;99286.31;5028130;28;20482;-54
2022/09/02 00:13:57;;;;;;;0.15;0.15;;;;;;;9.88;60.68;99286.56;5031375;28;20034;-51
2022/09/02 00:16:24;;;;;;;2.40;0.20;;;;;;;9.89;60.96;99290.97;5021349;28;20029;-54
2022/09/02 00:18:51;;;;;;;1.13;0.25;;;;;;;9.87;60.99;99295.56;5010936;28;20037;-55
2022/09/02 00:21:18;;;;;;;0.93;0.22;;;;;;;9.77;60.72;99274.16;5011843;28;20467;-52
2022/09/02 00:23:44;;;;;;;0.98;0.17;;;;;;;9.86;60.47;99288.53;5017884;28;20053;-52
2022/09/02 00:26:12;;;;;;;3.45;0.20;;;;;;;9.87;60.41;99292.06;5014130;28;20471;-59
2022/09/02 00:28:38;;;;;;;1.65;0.20;;;;;;;9.93;60.54;99293.38;5020984;28;20036;-55
2022/09/02 00:31:04;;;;;;;1.35;0.20;;;;;;;9.93;60.02;99288.84;5036773;28;20124;-54
2022/09/02 00:33:30;;;;;;;0.45;0.20;;;;;;;9.96;60.11;99299.28;5037135;28;20372;-53
2022/09/02 00:36:02;;;;;;;0.88;0.20;;;;;;;9.98;60.24;99285.78;5037263;28;20478;-55
2022/09/02 00:38:29;;;;;;;0.20;0.15;;;;;;;9.98;59.97;99297.31;5035218;28;20127;-53
2022/09/02 00:40:55;;;;;;;0.32;0.20;;;;;;;9.98;60.33;99294.63;5016642;28;20909;-55
2022/09/02 00:43:49;;;;;;;0.93;0.20;;;;;;;10.08;60.59;99289.34;5017607;28;20084;-56
2022/09/02 00:46:22;;;;;;;0.50;0.20;;;;;;;10.03;60.08;99283.53;5021253;28;20034;-57
2022/09/02 00:48:54;;;;;;;0.47;0.20;;;;;;;9.98;60.43;99288.44;5037042;28;20033;-54
2022/09/02 00:51:20;;;;;;;0.55;0.32;;;;;;;9.94;60.34;99292.38;5028761;28;20048;-58
2022/09/02 00:53:47;;;;;;;1.48;0.20;;;;;;;9.93;60.41;99288.00;5018024;28;20083;-56
2022/09/02 00:56:19;;;;;;;0.98;0.20;;;;;;;9.94;60.49;99295.88;5017386;28;20029;-55
2022/09/02 00:58:45;;;;;;;0.20;0.20;;;;;;;9.87;60.04;99300.06;5017027;28;20333;-54
2022/09/02 01:01:11;;;;;;;2.00;0.30;;;;;;;9.85;60.55;99299.38;5016897;28;20030;-54
2022/09/02 01:03:39;;;;;;;0.68;0.22;;;;;;;9.87;60.04;99298.22;5022849;28;20036;-56
2022/09/02 01:06:06;;;;;;;0.40;0.20;;;;;;;9.87;60.08;99292.88;5036860;28;20136;-54
2022/09/02 01:08:35;;;;;;;1.85;0.30;;;;;;;9.93;60.26;99290.69;5036641;28;20042;-54
2022/09/02 01:11:02;;;;;;;2.50;0.20;;;;;;;9.94;60.38;99295.88;5036367;28;20048;-51
2022/09/02 01:13:30;;;;;;;0.45;0.15;;;;;;;9.96;60.61;99291.25;5034665;28;20029;-54
2022/09/02 01:16:05;;;;;;;0.68;0.30;;;;;;;9.88;61.23;99264.34;5036472;28;20056;-52
2022/09/02 01:18:31;;;;;;;0.20;0.20;;;;;;;9.99;60.62;99296.31;5024987;28;20108;-52
2022/09/02 01:20:59;;;;;;;0.10;0.10;;;;;;;9.94;61.94;99300.41;5016446;28;20501;-54
2022/09/02 01:23:27;;;;;;;0.20;0.20;;;;;;;9.84;62.32;99295.84;5016761;28;20479;-53
2022/09/02 01:25:53;;;;;;;0.57;0.20;;;;;;;9.80;62.35;99299.75;5016688;28;20110;-56
2022/09/02 01:28:19;;;;;;;1.20;0.30;;;;;;;9.78;63.16;99299.03;5016633;28;20061;-56
2022/09/02 01:30:50;;;;;;;1.45;0.20;;;;;;;9.81;62.98;99301.44;5033947;28;20395;-58
2022/09/02 01:33:17;;;;;;;1.08;0.30;;;;;;;9.81;63.12;99305.97;5035825;28;20481;-56
2022/09/02 01:35:42;;;;;;;1.27;0.30;;;;;;;9.81;62.83;99301.44;5032607;28;20048;-52
2022/09/02 01:38:08;;;;;;;0.57;0.30;;;;;;;9.80;62.18;99304.28;5033235;28;20034;-55
2022/09/02 01:40:34;;;;;;;1.05;0.10;;;;;;;9.80;62.39;99302.44;5030141;28;20026;-54
2022/09/02 01:43:08;;;;;;;0.63;0.22;;;;;;;9.77;62.72;99303.56;5013367;28;20022;-55
2022/09/02 01:45:38;;;;;;;0.30;0.13;;;;;;;9.68;61.98;99308.84;5013922;28;20033;-53
2022/09/02 01:48:06;;;;;;;0.10;0.10;;;;;;;9.62;61.86;99307.53;5019775;28;20084;-53
2022/09/02 01:50:32;;;;;;;1.90;0.20;;;;;;;9.61;61.42;99308.50;5032674;28;20471;-54
2022/09/02 01:53:02;;;;;;;0.28;0.10;;;;;;;9.60;61.15;99310.31;5033220;28;20036;-54
2022/09/02 01:55:29;;;;;;;0.32;0.10;;;;;;;9.60;60.51;99326.34;5022615;28;20061;-56
2022/09/02 01:57:54;;;;;;;0.10;0.10;;;;;;;9.50;61.09;99304.06;5019655;28;20045;-52
2022/09/02 02:00:21;;;;;;;0.52;0.20;;;;;;;9.55;60.67;99317.88;5032020;28;20351;-55
2022/09/02 02:02:46;;;;;;;1.85;0.20;;;;;;;9.57;60.55;99321.28;5013454;28;20412;-56
2022/09/02 02:05:13;;;;;;;1.13;0.20;;;;;;;9.61;60.12;99317.34;5013108;28;20045;-56
2022/09/02 02:07:40;;;;;;;0.20;0.10;;;;;;;9.60;59.76;99313.00;5015847;28;20034;-56
2022/09/02 02:10:07;;;;;;;0.55;0.22;;;;;;;9.65;59.78;99315.28;5032649;28;20418;-55
2022/09/02 02:12:33;;;;;;;0.68;0.10;;;;;;;9.72;59.62;99323.63;5032643;28;20117;-54
2022/09/02 02:15:01;;;;;;;0.30;0.15;;;;;;;9.75;59.55;99318.03;5026046;28;20168;-52
2022/09/02 02:17:26;;;;;;;0.20;0.20;;;;;;;9.72;59.14;99320.97;5012494;28;20056;-54
2022/09/02 02:19:52;;;;;;;0.22;0.13;;;;;;;9.75;59.00;99321.53;5011769;28;20038;-53
2022/09/02 02:22:17;;;;;;;0.30;0.20;;;;;;;9.70;58.31;99313.06;5021315;28;20038;-54
2022/09/02 02:24:43;;;;;;;1.08;0.10;;;;;;;9.68;57.75;99322.19;5032687;28;20048;-54
2022/09/02 02:27:08;;;;;;;0.30;0.15;;;;;;;9.68;57.37;99327.56;5032067;28;20048;-54
2022/09/02 02:29:34;;;;;;;0.45;0.20;;;;;;;9.55;57.37;99299.19;5029343;28;20038;-50
2022/09/02 02:31:59;;;;;;;0.17;0.10;;;;;;;9.68;57.35;99322.19;5012890;28;20038;-55
2022/09/02 02:34:25;;;;;;;0.95;0.22;;;;;;;9.70;56.87;99323.75;5012322;28;20034;-50
2022/09/02 02:36:50;;;;;;;0.30;0.17;;;;;;;9.63;57.54;99320.75;5025233;28;20559;-52
2022/09/02 02:39:16;;;;;;;0.20;0.10;;;;;;;9.59;58.05;99330.00;5032807;28;20026;-54
2022/09/02 02:41:42;;;;;;;4.03;0.30;;;;;;;9.55;57.73;99333.09;5032420;28;20433;-53
2022/09/02 02:44:07;;;;;;;0.32;0.15;;;;;;;9.53;58.04;99327.84;5016094;28;20033;-56
2022/09/02 02:46:34;;;;;;;1.38;0.10;;;;;;;9.66;57.92;99334.84;5011945;28;20037;-61
2022/09/02 02:49:01;;;;;;;2.17;0.13;;;;;;;9.72;58.11;99334.31;5017747;28;20037;-53
2022/09/02 02:51:26;;;;;;;0.30;0.15;;;;;;;9.74;59.05;99343.06;5015778;28;20041;-55
2022/09/02 02:53:52;;;;;;;1.05;0.17;;;;;;;9.73;60.05;99344.03;5012146;28;20072;-55
2022/09/02 02:56:17;;;;;;;0.30;0.20;;;;;;;9.71;61.54;99337.97;5012871;28;20026;-56
2022/09/02 02:58:43;;;;;;;0.20;0.20;;;;;;;9.71;61.33;99349.50;5012239;28;20046;-55
2022/09/02 03:01:08;;;;;;;0.75;0.20;;;;;;;9.80;62.09;99357.75;5012515;28;20034;-55
2022/09/02 03:03:34;;;;;;;0.13;0.10;;;;;;;9.81;61.66;99356.75;5011385;28;20137;-55
2022/09/02 03:05:59;;;;;;;0.38;0.30;;;;;;;9.75;62.01;99368.81;5025260;28;20037;-52
2022/09/02 03:08:25;;;;;;;0.47;0.30;;;;;;;9.69;62.84;99367.50;5031443;28;20282;-54
2022/09/02 03:10:53;;;;;;;1.15;0.10;;;;;;;9.68;62.74;99368.47;5031454;28;20030;-50
2022/09/02 03:13:23;;;;;;;1.05;0.20;;;;;;;9.67;61.98;99363.28;5013973;28;20030;-51
2022/09/02 03:15:48;;;;;;;1.38;0.10;;;;;;;9.61;61.98;99364.63;5010381;28;20119;-52
2022/09/02 03:18:14;;;;;;;0.32;0.20;;;;;;;9.60;61.63;99382.47;5011427;28;20113;-53
2022/09/02 03:20:40;;;;;;;0.20;0.20;;;;;;;9.46;61.79;99366.78;5031490;28;20593;-54
2022/09/02 03:23:07;;;;;;;0.57;0.20;;;;;;;9.51;62.73;99369.91;5029928;28;20037;-52
2022/09/02 03:25:34;;;;;;;0.43;0.13;;;;;;;9.46;63.75;99359.59;5020048;28;20106;-56
2022/09/02 03:28:00;;;;;;;0.95;0.20;;;;;;;9.42;63.69;99376.03;5011427;28;20387;-50
2022/09/02 03:30:29;;;;;;;0.32;0.20;;;;;;;9.44;64.01;99374.91;5012423;28;20034;-55
2022/09/02 03:32:58;;;;;;;0.75;0.35;;;;;;;9.43;64.25;99377.72;5031217;28;20472;-53
2022/09/02 03:35:24;;;;;;;0.52;0.20;;;;;;;9.40;64.62;99373.47;5030896;28;20116;-53
2022/09/02 03:37:50;;;;;;;4.25;0.32;;;;;;;9.45;63.93;99373.09;5017672;28;20450;-54
2022/09/02 03:40:22;;;;;;;1.95;0.30;;;;;;;9.61;63.75;99386.84;5022798;28;20223;-56
2022/09/02 03:42:48;;;;;;;0.57;0.25;;;;;;;9.85;62.75;99367.03;5031409;28;20041;-53
2022/09/02 03:45:14;;;;;;;0.55;0.20;;;;;;;10.06;62.71;99374.22;5030534;28;20079;-53
2022/09/02 03:47:50;;;;;;;0.20;0.20;;;;;;;10.12;62.51;99379.03;5023430;28;20022;-56
2022/09/02 03:50:28;;;;;;;0.73;0.20;;;;;;;10.27;61.48;99384.91;5011275;28;20117;-55
2022/09/02 03:52:54;;;;;;;0.30;0.20;;;;;;;10.37;61.34;99387.63;5011218;28;20065;-55
2022/09/02 03:55:21;;;;;;;2.72;0.20;;;;;;;10.52;60.19;99384.63;5011084;28;20076;-56
2022/09/02 03:57:46;;;;;;;3.33;0.20;;;;;;;10.51;60.15;99380.25;5018459;28;20033;-56
2022/09/02 04:00:15;;;;;;;0.57;0.30;;;;;;;10.58;59.40;99386.75;5029955;28;20523;-55
2022/09/02 04:02:41;;;;;;;1.52;0.30;;;;;;;10.53;59.80;99391.66;5030311;28;20105;-54
2022/09/02 04:05:07;;;;;;;0.40;0.10;;;;;;;10.46;60.19;99391.34;5016856;28;20124;-55
2022/09/02 04:07:33;;;;;;;0.93;0.20;;;;;;;10.40;59.42;99386.50;5011139;28;20037;-56
2022/09/02 04:10:00;;;;;;;0.32;0.20;;;;;;;10.46;59.57;99402.91;5010923;28;20450;-56
2022/09/02 04:12:26;;;;;;;2.33;0.30;;;;;;;10.24;59.92;99366.41;5024962;28;20152;-56
2022/09/02 04:14:51;;;;;;;0.40;0.17;;;;;;;10.44;58.87;99404.88;5011439;28;20120;-56
2022/09/02 04:17:16;;;;;;;1.73;0.20;;;;;;;10.40;59.77;99403.44;5011161;28;20398;-54
2022/09/02 04:19:42;;;;;;;0.35;0.20;;;;;;;10.34;60.07;99403.94;5009813;28;20033;-54
2022/09/02 04:22:07;;;;;;;0.68;0.30;;;;;;;10.31;60.82;99405.06;5011509;28;20042;-54
2022/09/02 04:24:33;;;;;;;0.70;0.30;;;;;;;10.31;59.98;99412.22;5028704;28;20029;-56
2022/09/02 04:26:59;;;;;;;0.40;0.20;;;;;;;10.31;61.41;99414.91;5029741;28;20029;-54
2022/09/02 04:29:25;;;;;;;0.47;0.30;;;;;;;10.32;61.20;99419.28;5030598;28;20030;-58
2022/09/02 04:31:51;;;;;;;0.93;0.20;;;;;;;10.27;61.44;99417.00;5030324;28;20033;-52
2022/09/02 04:34:17;;;;;;;0.35;0.30;;;;;;;10.17;62.14;99408.94;5010924;28;20034;-51
2022/09/02 04:36:42;;;;;;;0.45;0.17;;;;;;;10.23;62.64;99412.88;5011109;28;20473;-56
2022/09/02 04:39:08;;;;;;;1.25;0.10;;;;;;;10.30;62.50;99419.41;5028341;28;20128;-55
2022/09/02 04:41:34;;;;;;;0.30;0.20;;;;;;;10.28;62.61;99423.19;5029631;28;20075;-54
2022/09/02 04:44:00;;;;;;;0.25;0.20;;;;;;;10.16;62.92;99406.38;5029542;28;20053;-56
2022/09/02 04:46:27;;;;;;;2.67;0.30;;;;;;;10.28;63.11;99432.09;5019654;28;20429;-57
2022/09/02 04:48:53;;;;;;;0.98;0.40;;;;;;;10.30;63.89;99437.28;5010516;28;20060;-55
2022/09/02 04:51:23;;;;;;;0.60;0.30;;;;;;;10.36;63.74;99434.06;5010319;28;20034;-56
2022/09/02 04:53:50;;;;;;;1.48;0.50;;;;;;;10.47;63.76;99436.72;5024195;28;20038;-53
2022/09/02 04:56:20;;;;;;;0.52;0.30;;;;;;;10.65;62.98;99437.94;5030213;28;20140;-54
2022/09/02 04:58:45;;;;;;;1.50;0.40;;;;;;;10.73;63.69;99440.78;5020241;28;20044;-52
2022/09/02 05:01:14;;;;;;;1.50;0.40;;;;;;;10.70;61.76;99425.84;5009919;28;20022;-53
2022/09/02 05:03:41;;;;;;;1.27;0.40;;;;;;;10.79;62.23;99434.03;5010351;28;20045;-49
2022/09/02 05:06:09;;;;;;;2.58;0.40;;;;;;;10.68;62.27;99441.19;5010826;28;20064;-50
2022/09/02 05:08:38;;;;;;;1.40;0.40;;;;;;;10.63;63.11;99443.44;5010279;28;20117;-52
2022/09/02 05:11:08;;;;;;;0.77;0.40;;;;;;;10.83;63.49;99451.53;5011002;28;20045;-48
2022/09/02 05:13:34;;;;;;;1.80;0.40;;;;;;;11.17;61.35;99444.03;5013626;28;20045;-52
2022/09/02 05:16:00;;;;;;;0.35;0.30;;;;;;;11.52;60.06;99449.88;5013700;28;20034;-52
2022/09/02 05:18:25;;;;;;;1.27;0.50;;;;;;;11.58;59.20;99441.28;5014892;28;20030;-50
2022/09/02 05:20:51;;;;;;;1.88;0.40;;;;;;;11.45;59.98;99446.94;5014085;28;20183;-53
2022/09/02 05:23:17;;;;;;;0.73;0.25;;;;;;;11.37;60.92;99448.59;5013666;28;20131;-51
2022/09/02 05:25:42;;;;;;;0.50;0.30;;;;;;;11.25;61.55;99459.41;5014384;28;20026;-51
2022/09/02 05:28:09;;;;;;;0.63;0.22;;;;;;;11.63;60.82;99460.47;5013897;28;20168;-52
2022/09/02 05:30:36;;;;;;;1.83;0.30;;;;;;;13.57;55.78;99460.25;5014250;28;20042;-52
2022/09/02 05:33:02;;;;;;;2.70;0.38;;;;;;;15.56;50.33;99453.41;5013363;28;20030;-51
2022/09/02 05:35:28;;;;;;;1.95;0.50;;;;;;;16.49;46.52;99443.31;5013327;28;20045;-56
2022/09/02 05:37:54;;;;;;;1.05;0.40;;;;;;;16.47;46.20;99452.59;5014568;28;20030;-49
2022/09/02 05:40:19;;;;;;;1.40;0.40;;;;;;;16.01;45.82;99456.66;5030114;28;20482;-50
2022/09/02 05:42:45;;;;;;;0.65;0.20;;;;;;;15.48;47.94;99453.38;5031532;28;20037;-53
2022/09/02 05:45:10;;;;;;;2.30;0.30;;;;;;;14.90;48.69;99455.84;5033582;28;20033;-52
2022/09/02 05:47:36;;;;;;;6.95;0.50;;;;;;;14.36;50.38;99464.94;5021400;28;20088;-53
2022/09/02 05:50:02;;;;;;;1.33;0.50;;;;;;;13.89;50.88;99463.41;5013555;28;20159;-55
2022/09/02 05:52:30;;;;;;;2.35;0.40;;;;;;;13.56;51.88;99463.06;5013396;28;20324;-55
2022/09/02 05:54:55;;;;;;;3.65;0.50;;;;;;;13.35;51.94;99462.34;5018798;28;20036;-49
2022/09/02 05:57:21;;;;;;;1.00;0.40;;;;;;;13.31;52.94;99465.47;5021665;28;20025;-52
2022/09/02 05:59:49;;;;;;;0.65;0.30;;;;;;;13.27;52.68;99470.31;5011891;28;20061;-55
2022/09/02 06:02:16;;;;;;;0.57;0.30;;;;;;;13.25;53.18;99480.34;5014607;28;20022;-50
2022/09/02 06:04:45;;;;;;;0.30;0.20;;;;;;;13.25;52.38;99477.66;5012920;28;20038;-51
2022/09/02 06:07:12;;;;;;;0.57;0.30;;;;;;;13.20;51.53;99475.44;5019408;28;20049;-53
2022/09/02 06:09:39;;;;;;;0.85;0.40;;;;;;;13.09;51.44;99477.47;5032817;28;20026;-52
2022/09/02 06:12:05;;;;;;;1.38;0.40;;;;;;;12.98;52.31;99481.19;5032911;28;20494;-51
2022/09/02 06:14:32;;;;;;;1.27;0.30;;;;;;;12.66;52.95;99479.75;5030989;28;20033;-54
2022/09/02 06:16:58;;;;;;;3.10;0.40;;;;;;;12.52;53.35;99489.09;5032679;28;20069;-52
2022/09/02 06:19:25;;;;;;;0.85;0.28;;;;;;;12.55;52.66;99481.63;5032276;28;20107;-50
2022/09/02 06:21:53;;;;;;;0.57;0.20;;;;;;;12.73;52.68;99491.63;5015840;28;20437;-50
2022/09/02 06:24:19;;;;;;;0.65;0.25;;;;;;;12.79;51.37;99493.72;5011217;28;20045;-50
2022/09/02 06:26:44;;;;;;;1.05;0.28;;;;;;;12.76;51.97;99491.31;5012110;28;20041;-61
2022/09/02 06:29:10;;;;;;;0.38;0.15;;;;;;;12.59;52.46;99495.63;5025284;28;20610;-57
2022/09/02 06:31:39;;;;;;;1.25;0.20;;;;;;;12.59;53.18;99509.03;5032753;28;20374;-61
2022/09/02 06:34:04;;;;;;;5.03;0.60;;;;;;;12.29;54.83;99494.78;5024935;28;20478;-56
2022/09/02 06:36:30;;;;;;;9.05;1.13;;;;;;;12.30;55.55;99531.41;5031051;28;20033;-57
2022/09/02 06:38:58;;;;;;;11.57;7.28;;;;;;;12.27;55.78;99529.84;5032161;28;20091;-56
2022/09/02 06:41:27;;;;;;;1.80;0.40;;;;;;;12.29;56.28;99527.88;5020033;28;20421;-57
2022/09/02 06:43:56;;;;;;;0.75;0.40;;;;;;;12.26;56.54;99538.03;5030325;28;20042;-55
2022/09/02 06:46:26;;;;;;;2.58;1.27;;;;;;;12.14;58.37;99540.88;5022932;28;20047;-55
2022/09/02 06:48:52;;;;;;;1.20;0.57;;;;;;;11.96;59.05;99540.69;5012143;28;20033;-57
2022/09/02 06:51:29;;;;;;;1.48;0.70;;;;;;;12.01;59.21;99548.34;5029714;28;20370;-54
2022/09/02 06:53:54;;;;;;;10.65;0.90;;;;;;;12.04;58.24;99545.38;5024764;28;20056;-55
2022/09/02 06:56:20;;;;;;;2.75;0.40;;;;;;;12.10;57.83;99552.88;5031744;28;20033;-52
2022/09/02 06:58:46;;;;;;;2.65;0.40;;;;;;;12.24;58.17;99545.38;5017498;28;20038;-56
2022/09/02 07:01:26;;;;;;;11.07;1.23;;;;;;;12.59;57.85;99509.03;5019009;28;20076;-56
2022/09/02 07:06:43;;;;;;;1.73;0.47;;;;;;;14.14;53.23;99550.59;5010474;28;20058;-53
2022/09/02 07:09:10;;;;;;;4.38;0.63;;;;;;;14.23;51.82;99548.81;5031297;28;20061;-56
2022/09/02 07:11:36;;;;;;;1.45;0.50;;;;;;;14.10;52.23;99549.22;5029824;28;20025;-55
2022/09/02 07:14:02;;;;;;;3.45;0.60;;;;;;;13.84;52.49;99558.03;5021825;28;20037;-55
2022/09/02 07:16:30;;;;;;;0.95;0.40;;;;;;;13.72;52.25;99556.53;5011185;28;20026;-52
2022/09/02 07:18:56;;;;;;;4.35;0.80;;;;;;;13.91;51.22;99548.34;5026982;28;20033;-55
2022/09/02 07:21:22;;;;;;;5.50;0.60;;;;;;;16.31;46.32;99518.28;5014497;28;20037;-56
2022/09/02 07:23:48;;;;;;;2.40;0.40;;;;;;;20.68;37.11;99535.59;5031493;28;20036;-56
2022/09/02 07:26:15;;;;;;;1.20;0.50;;;;;;;25.32;29.06;99522.28;5031285;28;20073;-52
2022/09/02 07:28:42;;;;;;;2.47;0.40;;;;;;;27.24;26.11;99514.31;5017123;28;20042;-57
2022/09/02 07:31:13;;;;;;;0.60;0.47;;;;;;;28.54;24.15;99523.09;5012151;28;20037;-56
2022/09/02 07:33:39;;;;;;;0.30;0.30;;;;;;;27.65;24.04;99534.44;5020168;28;20037;-58
2022/09/02 07:36:06;;;;;;;2.35;0.52;;;;;;;26.84;24.95;99540.59;5021793;28;20041;-57
2022/09/02 07:38:33;;;;;;;2.60;0.32;;;;;;;24.88;27.09;99544.25;5011732;28;20037;-57
2022/09/02 07:40:59;;;;;;;0.38;0.22;;;;;;;22.99;29.62;99556.13;5023294;28;20052;-57
2022/09/02 07:43:27;;;;;;;0.70;0.40;;;;;;;21.18;32.59;99561.91;5030332;28;20029;-57
2022/09/02 07:45:54;;;;;;;1.05;0.40;;;;;;;19.66;35.16;99551.94;5029463;28;20021;-58
2022/09/02 07:48:21;;;;;;;0.60;0.40;;;;;;;19.00;36.19;99568.97;5019575;28;20033;-55
2022/09/02 07:50:47;;;;;;;0.63;0.40;;;;;;;19.34;35.30;99562.16;5012454;28;20057;-61
2022/09/02 07:53:15;;;;;;;0.57;0.40;;;;;;;19.36;34.94;99562.81;5018644;28;20037;-54
2022/09/02 07:55:41;;;;;;;0.75;0.40;;;;;;;18.79;36.19;99570.50;5011811;28;20038;-52
2022/09/02 07:58:07;;;;;;;1.13;0.30;;;;;;;17.82;38.90;99575.41;5020658;28;20075;-53
2022/09/02 08:00:32;;;;;;;3.20;0.40;;;;;;;16.91;41.83;99573.81;5018809;28;20041;-54
2022/09/02 08:02:59;;;;;;;1.45;0.50;;;;;;;17.45;41.98;99574.22;5009996;28;20045;-58
2022/09/02 08:05:26;;;;;;;1.65;0.40;;;;;;;18.81;39.00;99565.72;5026088;28;20120;-58
2022/09/02 08:07:52;;;;;;;1.85;0.40;;;;;;;19.17;37.03;99575.06;5023377;28;20054;-59
2022/09/02 08:10:19;;;;;;;4.93;0.57;;;;;;;18.91;38.33;99584.47;5027038;28;20037;-59
2022/09/02 08:12:46;;;;;;;5.97;0.50;;;;;;;18.43;39.48;99582.84;5029302;28;20154;-61
2022/09/02 08:15:13;;;;;;;0.55;0.30;;;;;;;18.05;39.41;99585.44;5030426;28;20510;-60
2022/09/02 08:17:39;;;;;;;0.45;0.30;;;;;;;17.81;40.42;99576.41;5010860;28;20029;-59
2022/09/02 08:20:07;;;;;;;2.30;0.50;;;;;;;17.89;39.83;99581.81;5010942;28;20141;-60
2022/09/02 08:22:34;;;;;;;0.82;0.40;;;;;;;17.87;39.45;99578.44;5011343;28;20508;-58
2022/09/02 08:25:01;;;;;;;3.00;0.63;;;;;;;17.98;39.63;99590.72;5009706;28;20455;-59
2022/09/02 08:27:30;;;;;;;1.85;0.40;;;;;;;17.97;39.01;99583.63;5010815;28;20030;-60
2022/09/02 08:29:57;;;;;;;2.47;0.40;;;;;;;17.59;39.13;99578.88;5022686;28;20044;-59
2022/09/02 08:32:23;;;;;;;0.70;0.50;;;;;;;17.33;39.01;99588.13;5026198;28;20029;-58
2022/09/02 08:34:49;;;;;;;1.00;0.40;;;;;;;17.15;39.03;99601.88;5010983;28;20041;-57
2022/09/02 08:37:15;;;;;;;0.75;0.30;;;;;;;16.76;39.49;99587.19;5010201;28;20828;-60
2022/09/02 08:39:40;;;;;;;0.40;0.30;;;;;;;16.82;40.24;99599.19;5029922;28;20030;-50
2022/09/02 08:42:39;;;;;;;0.30;0.20;;;;;;;16.95;39.88;99606.78;5028252;28;20037;-57
2022/09/02 08:45:34;;;;;;;4.10;0.30;;;;;;;17.16;40.04;99602.72;5028020;28;20049;-58
2022/09/02 08:48:07;;;;;;;2.00;0.30;;;;;;;17.30;39.76;99609.28;5028220;28;20422;-56
2022/09/02 08:50:36;;;;;;;0.47;0.30;;;;;;;17.28;39.24;99605.91;5031103;28;20049;-55
2022/09/02 08:53:27;;;;;;;1.08;0.43;;;;;;;17.44;40.07;99608.53;5034392;28;20057;-53
2022/09/02 08:55:55;;;;;;;3.58;0.47;;;;;;;17.38;39.60;99611.13;5013929;28;20496;-56
2022/09/02 08:58:26;;;;;;;0.63;0.40;;;;;;;17.61;39.34;99612.06;5013440;28;20109;-57
2022/09/02 09:01:09;;;;;;;1.55;0.40;;;;;;;17.90;38.72;99610.56;5029497;28;20037;-56
2022/09/02 09:03:50;;;;;;;1.58;0.43;;;;;;;17.72;38.34;99623.50;5033639;28;20114;-70
2022/09/02 09:06:24;;;;;;;2.28;0.30;;;;;;;17.14;39.75;99627.22;5021246;28;20073;-58
2022/09/02 09:09:08;;;;;;;1.40;0.40;;;;;;;16.58;41.07;99632.47;5014467;28;20116;-57
2022/09/02 09:12:06;;;;;;;2.20;0.40;;;;;;;16.03;43.11;99649.06;5014160;28;20041;-58
2022/09/02 09:14:56;;;;;;;2.15;0.45;;;;;;;15.26;45.98;99655.25;5020994;28;20030;-56
2022/09/02 09:17:31;;;;;;;1.15;0.22;;;;;;;14.70;46.89;99650.06;5013437;28;20038;-60
2022/09/02 09:20:02;;;;;;;0.88;0.22;;;;;;;14.25;47.87;99629.47;5018335;28;20041;-54
2022/09/02 09:22:32;;;;;;;1.73;0.30;;;;;;;14.28;46.95;99653.41;5033046;28;20057;-57
2022/09/02 09:24:58;;;;;;;0.77;0.30;;;;;;;14.07;48.43;99659.91;5028690;28;20029;-59
2022/09/02 09:27:24;;;;;;;1.20;0.50;;;;;;;14.26;48.39;99658.09;5014808;28;20034;-63
2022/09/02 09:29:51;;;;;;;2.40;0.30;;;;;;;14.61;48.39;99662.66;5014544;28;20401;-60
2022/09/02 09:32:32;;;;;;;3.90;0.50;;;;;;;14.98;47.51;99666.19;5013092;28;20108;-58
2022/09/02 09:35:10;;;;;;;1.05;0.30;;;;;;;15.13;45.31;99671.00;5032980;28;20052;-55
2022/09/02 09:37:37;;;;;;;1.90;0.52;;;;;;;15.12;44.32;99654.00;5033048;28;20116;-57
2022/09/02 09:40:18;;;;;;;3.75;0.55;;;;;;;15.48;45.28;99675.44;5031702;28;20099;-55
2022/09/02 09:42:45;;;;;;;1.98;0.55;;;;;;;15.58;44.95;99672.63;5032995;28;20033;-56
2022/09/02 09:45:20;;;;;;;0.43;0.30;;;;;;;15.97;45.32;99681.28;5024323;28;20048;-57
2022/09/02 09:48:22;;;;;;;;;;;;;;;16.65;43.30;99682.97;5031766;28;20417;-60
2022/09/02 09:51:11;;;;;;;0.63;0.43;;;;;;;16.71;41.65;99686.88;5030017;28;20002;-56
2022/09/02 09:53:38;;;;;;;0.60;0.30;;;;;;;16.28;41.00;99680.72;5025507;28;20029;-56
2022/09/02 09:56:22;;;;;;;0.40;0.30;;;;;;;16.14;41.04;99671.38;5022578;28;20029;-56
2022/09/02 09:58:48;;;;;;;2.58;0.30;;;;;;;16.05;40.92;99686.72;5026236;28;20040;-61
2022/09/02 10:01:22;;;;;;;1.17;0.40;;;;;;;15.97;41.09;99675.91;5015501;28;20041;-60
2022/09/02 10:03:52;;;;;;;1.88;0.40;;;;;;;15.64;41.48;99684.66;5013050;28;20041;-60
2022/09/02 10:06:22;;;;;;;1.08;0.43;;;;;;;15.48;41.84;99690.81;5012917;28;20184;-58
2022/09/02 10:08:58;;;;;;;0.40;0.40;;;;;;;15.56;41.93;99684.63;5013537;28;20140;-58
2022/09/02 10:11:29;;;;;;;2.03;0.45;;;;;;;15.65;42.24;99714.16;5013153;28;20053;-58
2022/09/02 10:14:07;;;;;;;7.05;0.80;;;;;;;15.58;44.72;99732.00;5013743;28;20049;-59
2022/09/02 10:17:12;;;;;;;4.10;0.50;;;;;;;15.13;47.39;99735.72;5012159;28;20038;-58
2022/09/02 10:19:58;;;;;;;3.50;0.30;;;;;;;14.67;49.53;99731.22;5029147;28;20535;-59
2022/09/02 10:22:46;;;;;;;2.85;0.40;;;;;;;14.60;50.71;99732.84;5033036;28;20029;-56
2022/09/02 10:25:19;;;;;;;1.85;0.40;;;;;;;14.52;51.81;99724.69;5029887;28;20033;-60
2022/09/02 10:28:02;;;;;;;4.88;0.50;;;;;;;14.43;51.31;99727.25;5031772;28;20033;-56
2022/09/02 10:30:35;;;;;;;1.50;0.68;;;;;;;14.37;51.81;99729.75;5027462;28;20377;-57
2022/09/02 10:33:07;;;;;;;1.42;0.50;;;;;;;14.33;51.85;99718.41;5012500;28;20030;-58
2022/09/02 10:35:38;;;;;;;2.20;0.65;;;;;;;14.39;52.36;99730.44;5013410;28;20143;-55
2022/09/02 10:38:25;;;;;;;1.35;0.70;;;;;;;14.40;51.37;99727.56;5013099;28;20113;-57
2022/09/02 10:41:32;;;;;;;4.53;0.70;;;;;;;14.48;49.96;99729.50;5012008;28;20045;-59
2022/09/02 10:44:29;;;;;;;0.68;0.35;;;;;;;14.48;50.09;99737.59;5013097;28;20580;-60
2022/09/02 10:47:21;;;;;;;1.27;0.43;;;;;;;14.36;49.92;99731.56;5011557;28;20037;-58
2022/09/02 10:50:14;;;;;;;1.08;0.40;;;;;;;14.62;48.77;99728.16;5013214;28;20046;-61
2022/09/02 10:52:46;;;;;;;2.60;0.50;;;;;;;14.55;47.21;99718.97;5015842;28;20045;-61
2022/09/02 10:55:14;;;;;;;2.10;0.25;;;;;;;14.51;47.32;99734.59;5015555;28;20755;-56
2022/09/02 10:58:02;;;;;;;2.35;0.32;;;;;;;14.81;47.11;99737.13;5024934;28;20033;-60
2022/09/02 11:00:30;;;;;;;1.05;0.20;;;;;;;15.03;46.23;99746.56;5012841;28;20109;-60
2022/09/02 11:03:14;;;;;;;4.90;0.50;;;;;;;15.62;44.66;99751.44;5011723;28;20038;-56
2022/09/02 11:05:53;;;;;;;1.58;0.28;;;;;;;16.03;43.98;99742.75;5011817;28;20049;-57
2022/09/02 11:08:39;;;;;;;1.80;0.20;;;;;;;16.52;43.21;99742.09;5026117;28;20045;-59
2022/09/02 11:11:10;;;;;;;2.03;0.50;;;;;;;16.91;43.02;99743.34;5029186;28;20065;-61
2022/09/02 11:13:58;;;;;;;1.27;0.40;;;;;;;17.41;42.14;99746.91;5012328;28;20497;-59
2022/09/02 11:16:36;;;;;;;2.47;0.30;;;;;;;17.30;40.18;99712.94;5021768;28;20049;-63
2022/09/02 11:19:14;;;;;;;1.35;0.50;;;;;;;17.39;40.61;99726.47;5013551;28;20042;-59
2022/09/02 11:21:55;;;;;;;1.52;0.35;;;;;;;17.33;40.63;99757.75;5011991;28;20556;-61
2022/09/02 11:24:30;;;;;;;0.77;0.43;;;;;;;17.36;40.94;99747.44;5014968;28;20041;-57
2022/09/02 11:27:14;;;;;;;1.95;0.50;;;;;;;17.33;40.29;99753.19;5023173;28;20033;-59
2022/09/02 11:30:01;;;;;;;1.58;0.40;;;;;;;17.55;39.75;99764.31;5014303;28;20155;-58
2022/09/02 11:32:30;;;;;;;0.57;0.35;;;;;;;17.67;39.11;99764.00;5030000;28;20030;-57
2022/09/02 11:34:58;;;;;;;0.50;0.30;;;;;;;17.58;38.39;99761.28;5030007;28;20492;-57
2022/09/02 11:37:38;;;;;;;3.67;0.70;;;;;;;17.46;38.66;99755.38;5013291;28;20137;-62
2022/09/02 11:40:11;;;;;;;3.00;0.32;;;;;;;17.08;38.63;99747.75;5011869;28;20033;-63
2022/09/02 11:42:52;;;;;;;0.52;0.30;;;;;;;17.16;39.40;99771.28;5011934;28;20029;-58
2022/09/02 11:45:55;;;;;;;1.52;0.30;;;;;;;17.07;39.77;99773.13;5010499;28;20060;-56
2022/09/02 11:48:40;;;;;;;0.70;0.30;;;;;;;17.01;39.80;99781.91;5011604;28;20096;-59
2022/09/02 11:51:11;;;;;;;2.33;0.40;;;;;;;16.83;39.56;99786.56;5011396;28;20059;-59
2022/09/02 11:53:40;;;;;;;3.78;0.45;;;;;;;16.52;40.13;99781.78;5011037;28;20502;-56